MAS304 WMKK-WMKN
Flight info
| Callsign | MAS304 |
|---|---|
| Flight time | 0h 35m |
| Altitude | 23000 |
| Route | PIBOS1D PIBOS R208 GUNBO GUNBO1E |
| Aircraft | B38M/M-SDE1FGHILORVWXY/HB1 |
Departure
| Time | 2026-04-17 04:59 |
|---|---|
| Airport | Kuala Lumpur International Airport (WMKK) |
Arrival
| Time | 2026-04-17 05:34 |
|---|---|
| Airport | Sultan Mahmud Airport (WMKN) |
| Time | Latitude | Longitude | Altitude | Speed | Heading |
|---|---|---|---|---|---|
| 2026-04-17 04:52 | 2.74895 | 101.71629 | 66 ft | 0 kts | 326° |
| 2026-04-17 04:55 | 2.74814 | 101.71640 | 64 ft | 0 kts | 56° |
| 2026-04-17 04:57 | 2.74826 | 101.71658 | 73 ft | 7 kts | 56° |
| 2026-04-17 04:57 | 2.74874 | 101.71730 | 71 ft | 18 kts | 56° |
| 2026-04-17 04:57 | 2.74942 | 101.71833 | 77 ft | 15 kts | 62° |
| 2026-04-17 04:58 | 2.75003 | 101.71924 | 82 ft | 17 kts | 55° |
| 2026-04-17 04:58 | 2.75078 | 101.72015 | 81 ft | 17 kts | 22° |
| 2026-04-17 04:58 | 2.75186 | 101.71971 | 73 ft | 19 kts | 326° |
| 2026-04-17 04:58 | 2.75308 | 101.71891 | 75 ft | 27 kts | 326° |
| 2026-04-17 04:59 | 2.75680 | 101.71641 | 75 ft | 104 kts | 326° |
| 2026-04-17 04:59 | 2.76490 | 101.71099 | 72 ft | 172 kts | 326° |
| 2026-04-17 04:59 | 2.77542 | 101.70392 | 691 ft | 184 kts | 325° |
| 2026-04-17 04:59 | 2.78612 | 101.69671 | 1618 ft | 192 kts | 325° |
| 2026-04-17 05:00 | 2.79811 | 101.68889 | 2183 ft | 217 kts | 329° |
| 2026-04-17 05:00 | 2.81272 | 101.68307 | 2787 ft | 237 kts | 347° |
| 2026-04-17 05:00 | 2.82981 | 101.68169 | 3397 ft | 254 kts | 9° |
| 2026-04-17 05:00 | 2.84649 | 101.68779 | 4156 ft | 262 kts | 37° |
| 2026-04-17 05:01 | 2.86010 | 101.70012 | 5012 ft | 268 kts | 47° |
| 2026-04-17 05:01 | 2.87419 | 101.71251 | 5954 ft | 272 kts | 38° |
| 2026-04-17 05:01 | 2.88946 | 101.72359 | 6860 ft | 276 kts | 36° |
| 2026-04-17 05:01 | 2.90562 | 101.73482 | 7699 ft | 283 kts | 37° |
| 2026-04-17 05:02 | 2.92163 | 101.74605 | 8619 ft | 285 kts | 37° |
| 2026-04-17 05:02 | 2.93794 | 101.75760 | 9527 ft | 289 kts | 37° |
| 2026-04-17 05:02 | 2.95444 | 101.76936 | 10336 ft | 295 kts | 37° |
| 2026-04-17 05:02 | 2.97164 | 101.78162 | 10768 ft | 313 kts | 37° |
| 2026-04-17 05:03 | 2.98978 | 101.79454 | 11264 ft | 327 kts | 37° |
| 2026-04-17 05:03 | 3.00834 | 101.80781 | 11984 ft | 330 kts | 37° |
| 2026-04-17 05:03 | 3.02563 | 101.82021 | 12682 ft | 334 kts | 37° |
| 2026-04-17 05:03 | 3.04461 | 101.83382 | 13386 ft | 338 kts | 37° |
| 2026-04-17 05:04 | 3.06382 | 101.84762 | 14058 ft | 341 kts | 37° |
| 2026-04-17 05:04 | 3.08322 | 101.86154 | 14649 ft | 345 kts | 37° |
| 2026-04-17 05:04 | 3.10286 | 101.87565 | 15240 ft | 349 kts | 37° |
| 2026-04-17 05:04 | 3.12275 | 101.88993 | 15819 ft | 353 kts | 37° |
| 2026-04-17 05:05 | 3.14283 | 101.90434 | 16383 ft | 358 kts | 37° |
| 2026-04-17 05:05 | 3.16315 | 101.91894 | 16928 ft | 361 kts | 37° |
| 2026-04-17 05:05 | 3.18368 | 101.93368 | 17484 ft | 365 kts | 37° |
| 2026-04-17 05:05 | 3.20420 | 101.94843 | 18001 ft | 369 kts | 37° |
| 2026-04-17 05:06 | 3.22517 | 101.96349 | 18477 ft | 373 kts | 37° |
| 2026-04-17 05:06 | 3.24627 | 101.97864 | 18954 ft | 375 kts | 37° |
| 2026-04-17 05:06 | 3.26755 | 101.99393 | 19436 ft | 377 kts | 37° |
| 2026-04-17 05:06 | 3.28893 | 102.00929 | 19902 ft | 379 kts | 37° |
| 2026-04-17 05:07 | 3.31039 | 102.02471 | 20375 ft | 381 kts | 37° |
| 2026-04-17 05:07 | 3.33196 | 102.04021 | 20844 ft | 383 kts | 37° |
| 2026-04-17 05:07 | 3.35405 | 102.05543 | 21318 ft | 386 kts | 31° |
| 2026-04-17 05:07 | 3.37737 | 102.06888 | 21793 ft | 388 kts | 31° |
| 2026-04-17 05:08 | 3.40076 | 102.08255 | 22268 ft | 391 kts | 31° |
| 2026-04-17 05:08 | 3.42421 | 102.09640 | 22731 ft | 393 kts | 31° |
| 2026-04-17 05:08 | 3.44853 | 102.10944 | 22857 ft | 400 kts | 27° |
| 2026-04-17 05:08 | 3.47353 | 102.12198 | 22888 ft | 403 kts | 28° |
| 2026-04-17 05:09 | 3.49858 | 102.13470 | 22900 ft | 403 kts | 28° |
| 2026-04-17 05:09 | 3.52363 | 102.14750 | 22908 ft | 403 kts | 28° |
| 2026-04-17 05:09 | 3.54864 | 102.16030 | 22906 ft | 403 kts | 28° |
| 2026-04-17 05:09 | 3.57362 | 102.17310 | 22905 ft | 403 kts | 28° |
| 2026-04-17 05:10 | 3.59832 | 102.18576 | 22901 ft | 403 kts | 28° |
| 2026-04-17 05:10 | 3.62328 | 102.19856 | 22906 ft | 403 kts | 28° |
| 2026-04-17 05:10 | 3.64827 | 102.21137 | 22902 ft | 404 kts | 28° |
| 2026-04-17 05:10 | 3.67324 | 102.22417 | 22903 ft | 403 kts | 28° |
| 2026-04-17 05:11 | 3.69822 | 102.23697 | 22902 ft | 403 kts | 28° |
| 2026-04-17 05:11 | 3.72321 | 102.24979 | 22906 ft | 403 kts | 28° |
| 2026-04-17 05:11 | 3.74814 | 102.26258 | 22900 ft | 403 kts | 28° |
| 2026-04-17 05:11 | 3.77316 | 102.27540 | 22903 ft | 403 kts | 28° |
| 2026-04-17 05:12 | 3.79815 | 102.28822 | 22899 ft | 403 kts | 28° |
| 2026-04-17 05:12 | 3.82306 | 102.30100 | 22900 ft | 403 kts | 28° |
| 2026-04-17 05:12 | 3.84804 | 102.31382 | 22898 ft | 403 kts | 28° |
| 2026-04-17 05:12 | 3.87311 | 102.32668 | 22899 ft | 404 kts | 28° |
| 2026-04-17 05:13 | 3.89814 | 102.33951 | 22897 ft | 404 kts | 28° |
| 2026-04-17 05:13 | 3.92311 | 102.35233 | 22898 ft | 404 kts | 28° |
| 2026-04-17 05:13 | 3.94813 | 102.36516 | 22899 ft | 404 kts | 28° |
| 2026-04-17 05:13 | 3.97311 | 102.37797 | 22897 ft | 400 kts | 27° |
| 2026-04-17 05:14 | 3.99737 | 102.39043 | 22919 ft | 384 kts | 28° |
| 2026-04-17 05:14 | 4.02076 | 102.40243 | 22825 ft | 373 kts | 28° |
| 2026-04-17 05:14 | 4.04371 | 102.41421 | 22471 ft | 369 kts | 28° |
| 2026-04-17 05:14 | 4.06620 | 102.42575 | 22101 ft | 367 kts | 27° |
| 2026-04-17 05:15 | 4.08911 | 102.43751 | 21721 ft | 364 kts | 28° |
| 2026-04-17 05:15 | 4.11132 | 102.44891 | 21351 ft | 362 kts | 28° |
| 2026-04-17 05:15 | 4.13369 | 102.46039 | 20986 ft | 360 kts | 28° |
| 2026-04-17 05:15 | 4.15590 | 102.47179 | 20617 ft | 358 kts | 28° |
| 2026-04-17 05:16 | 4.17802 | 102.48315 | 20253 ft | 356 kts | 28° |
| 2026-04-17 05:16 | 4.20004 | 102.49445 | 19891 ft | 355 kts | 28° |
| 2026-04-17 05:16 | 4.22195 | 102.50571 | 19527 ft | 353 kts | 27° |
| 2026-04-17 05:16 | 4.24377 | 102.51691 | 19169 ft | 352 kts | 27° |
| 2026-04-17 05:17 | 4.26556 | 102.52810 | 18817 ft | 351 kts | 27° |
| 2026-04-17 05:17 | 4.28722 | 102.53923 | 18454 ft | 350 kts | 27° |
| 2026-04-17 05:17 | 4.30883 | 102.55032 | 18085 ft | 349 kts | 27° |
| 2026-04-17 05:17 | 4.33042 | 102.56141 | 17685 ft | 347 kts | 27° |
| 2026-04-17 05:18 | 4.35187 | 102.57243 | 17315 ft | 345 kts | 27° |
| 2026-04-17 05:18 | 4.37313 | 102.58335 | 16959 ft | 342 kts | 28° |
| 2026-04-17 05:18 | 4.39423 | 102.59419 | 16608 ft | 340 kts | 28° |
| 2026-04-17 05:18 | 4.41491 | 102.60482 | 16260 ft | 337 kts | 28° |
| 2026-04-17 05:19 | 4.43598 | 102.61564 | 15914 ft | 335 kts | 28° |
| 2026-04-17 05:19 | 4.45640 | 102.62614 | 15575 ft | 333 kts | 28° |
| 2026-04-17 05:19 | 4.47703 | 102.63674 | 15229 ft | 331 kts | 28° |
| 2026-04-17 05:19 | 4.49745 | 102.64723 | 14887 ft | 329 kts | 28° |
| 2026-04-17 05:20 | 4.51782 | 102.65771 | 14551 ft | 329 kts | 28° |
| 2026-04-17 05:20 | 4.53815 | 102.66815 | 14214 ft | 328 kts | 28° |
| 2026-04-17 05:20 | 4.55848 | 102.67860 | 13867 ft | 327 kts | 28° |
| 2026-04-17 05:20 | 4.57869 | 102.68898 | 13503 ft | 325 kts | 28° |
| 2026-04-17 05:21 | 4.59878 | 102.69928 | 13136 ft | 323 kts | 27° |
| 2026-04-17 05:21 | 4.61890 | 102.70923 | 12759 ft | 322 kts | 27° |
| 2026-04-17 05:21 | 4.63894 | 102.71913 | 12438 ft | 319 kts | 27° |
| 2026-04-17 05:21 | 4.65873 | 102.72893 | 12144 ft | 315 kts | 27° |
| 2026-04-17 05:22 | 4.67827 | 102.73860 | 11865 ft | 311 kts | 27° |
| 2026-04-17 05:22 | 4.69758 | 102.74816 | 11551 ft | 309 kts | 27° |
| 2026-04-17 05:22 | 4.71671 | 102.75764 | 11229 ft | 306 kts | 27° |
| 2026-04-17 05:22 | 4.73557 | 102.76699 | 10923 ft | 305 kts | 27° |
| 2026-04-17 05:23 | 4.75455 | 102.77639 | 10596 ft | 303 kts | 27° |
| 2026-04-17 05:23 | 4.77341 | 102.78574 | 10337 ft | 299 kts | 27° |
| 2026-04-17 05:23 | 4.79181 | 102.79486 | 10193 ft | 291 kts | 27° |
| 2026-04-17 05:23 | 4.80974 | 102.80374 | 9981 ft | 286 kts | 27° |
| 2026-04-17 05:24 | 4.82758 | 102.81258 | 9669 ft | 284 kts | 27° |
| 2026-04-17 05:24 | 4.84520 | 102.82132 | 9345 ft | 283 kts | 27° |
| 2026-04-17 05:24 | 4.86280 | 102.83003 | 9050 ft | 281 kts | 26° |
| 2026-04-17 05:24 | 4.88129 | 102.83624 | 8715 ft | 281 kts | 15° |
| 2026-04-17 05:25 | 4.90022 | 102.84086 | 8396 ft | 280 kts | 15° |
| 2026-04-17 05:25 | 4.91907 | 102.84554 | 8106 ft | 278 kts | 15° |
| 2026-04-17 05:25 | 4.93783 | 102.85026 | 7796 ft | 276 kts | 15° |
| 2026-04-17 05:25 | 4.95644 | 102.85496 | 7499 ft | 275 kts | 15° |
| 2026-04-17 05:26 | 4.97493 | 102.85964 | 7211 ft | 273 kts | 15° |
| 2026-04-17 05:26 | 4.99333 | 102.86431 | 6917 ft | 272 kts | 15° |
| 2026-04-17 05:26 | 5.01171 | 102.86897 | 6626 ft | 272 kts | 15° |
| 2026-04-17 05:26 | 5.02984 | 102.87357 | 6329 ft | 272 kts | 15° |
| 2026-04-17 05:27 | 5.04816 | 102.87824 | 6013 ft | 271 kts | 15° |
| 2026-04-17 05:27 | 5.06637 | 102.88286 | 5707 ft | 269 kts | 15° |
| 2026-04-17 05:27 | 5.08461 | 102.88704 | 5419 ft | 268 kts | 11° |
| 2026-04-17 05:27 | 5.10300 | 102.89054 | 5093 ft | 270 kts | 11° |
| 2026-04-17 05:28 | 5.12148 | 102.89412 | 4768 ft | 271 kts | 11° |
| 2026-04-17 05:28 | 5.13991 | 102.89771 | 4536 ft | 267 kts | 11° |
| 2026-04-17 05:28 | 5.15798 | 102.90125 | 4388 ft | 260 kts | 11° |
| 2026-04-17 05:28 | 5.17538 | 102.90515 | 4237 ft | 253 kts | 20° |
| 2026-04-17 05:29 | 5.19039 | 102.91369 | 4076 ft | 245 kts | 41° |
| 2026-04-17 05:29 | 5.20243 | 102.92530 | 3957 ft | 236 kts | 46° |
| 2026-04-17 05:29 | 5.21380 | 102.93688 | 3826 ft | 229 kts | 46° |
| 2026-04-17 05:29 | 5.22484 | 102.94786 | 3682 ft | 224 kts | 46° |
| 2026-04-17 05:30 | 5.23586 | 102.95874 | 3493 ft | 220 kts | 45° |
| 2026-04-17 05:30 | 5.24667 | 102.96941 | 3259 ft | 214 kts | 45° |
| 2026-04-17 05:30 | 5.25705 | 102.97965 | 2983 ft | 205 kts | 46° |
| 2026-04-17 05:30 | 5.26701 | 102.98945 | 2713 ft | 196 kts | 46° |
| 2026-04-17 05:31 | 5.27659 | 102.99890 | 2487 ft | 193 kts | 46° |
| 2026-04-17 05:31 | 5.28306 | 103.00527 | 2320 ft | 191 kts | 46° |
| 2026-04-17 05:31 | 5.29202 | 103.01410 | 2112 ft | 176 kts | 45° |
| 2026-04-17 05:31 | 5.30331 | 103.02535 | 1787 ft | 167 kts | 47° |
| 2026-04-17 05:32 | 5.30875 | 103.03064 | 1676 ft | 161 kts | 46° |
| 2026-04-17 05:32 | 5.31670 | 103.03843 | 1436 ft | 157 kts | 48° |
| 2026-04-17 05:32 | 5.32442 | 103.04608 | 1241 ft | 155 kts | 46° |
| 2026-04-17 05:32 | 5.33209 | 103.05358 | 1016 ft | 152 kts | 47° |
| 2026-04-17 05:33 | 5.33956 | 103.06101 | 861 ft | 149 kts | 46° |
| 2026-04-17 05:33 | 5.34674 | 103.06827 | 662 ft | 147 kts | 44° |
| 2026-04-17 05:33 | 5.35407 | 103.07532 | 448 ft | 146 kts | 43° |
| 2026-04-17 05:33 | 5.36134 | 103.08250 | 260 ft | 144 kts | 43° |
| 2026-04-17 05:34 | 5.36830 | 103.08936 | 121 ft | 140 kts | 42° |
| 2026-04-17 05:34 | 5.37520 | 103.09598 | 54 ft | 126 kts | 43° |
| 2026-04-17 05:34 | 5.37975 | 103.10044 | 52 ft | 59 kts | 44° |
| 2026-04-17 05:34 | 5.38074 | 103.10181 | 54 ft | 11 kts | 102° |
| 2026-04-17 05:35 | 5.38030 | 103.10246 | 56 ft | 11 kts | 137° |
| 2026-04-17 05:35 | 5.37999 | 103.10298 | 55 ft | 6 kts | 108° |
| 2026-04-17 05:35 | 5.37972 | 103.10333 | 56 ft | 7 kts | 134° |
| 2026-04-17 05:35 | 5.37934 | 103.10373 | 54 ft | 7 kts | 135° |
| 2026-04-17 05:36 | 5.37915 | 103.10391 | 56 ft | 4 kts | 134° |
| 2026-04-17 05:36 | 5.37906 | 103.10400 | 56 ft | 2 kts | 134° |
| 2026-04-17 05:36 | 5.37903 | 103.10404 | 56 ft | 0 kts | 135° |